Time;durP1;ratioP1;P1;durP2;ratioP2;P2;SDS_P1;SDS_P2;PMS_P1;PMS_P2;Temp;Humidity;BMP_temperature;BMP_pressure;BME280_temperature;BME280_humidity;BME280_pressure;Samples;Min_cycle;Max_cycle;Signal;HPM_P1;HPM_P2
2022/08/15 00:01:04;;;;;;;8.65;6.00;;;;;;;24.33;49.29;99903.63;5090603;28;20082;-72
2022/08/15 00:03:31;;;;;;;12.88;6.20;;;;;;;24.31;49.40;99916.50;5090691;28;20028;-70
2022/08/15 00:06:00;;;;;;;11.57;6.32;;;;;;;24.29;49.21;99922.13;5073423;28;20205;-72
2022/08/15 00:08:28;;;;;;;9.75;6.68;;;;;;;24.28;48.90;99915.06;5090364;28;20052;-71
2022/08/15 00:10:57;;;;;;;9.68;6.35;;;;;;;24.28;49.25;99909.63;5086528;28;20045;-74
2022/08/15 00:13:25;;;;;;;11.25;6.35;;;;;;;24.28;49.16;99917.75;5090467;28;20078;-73
2022/08/15 00:15:55;;;;;;;10.50;6.65;;;;;;;24.28;48.95;99916.91;5090483;28;20126;-71
2022/08/15 00:18:26;;;;;;;10.02;7.07;;;;;;;24.27;48.75;99912.53;5090377;28;20054;-72
2022/08/15 00:20:53;;;;;;;7.75;6.50;;;;;;;24.25;48.72;99920.84;5086237;28;20279;-71
2022/08/15 00:23:22;;;;;;;10.85;6.18;;;;;;;24.24;48.71;99919.19;5090237;28;20086;-74
2022/08/15 00:25:50;;;;;;;9.93;6.55;;;;;;;24.23;48.92;99914.81;5090269;28;20031;-73
2022/08/15 00:28:16;;;;;;;7.45;6.30;;;;;;;24.23;48.92;99914.81;5090177;28;20025;-72
2022/08/15 00:30:44;;;;;;;10.32;6.53;;;;;;;24.22;49.03;99918.53;5086997;28;20036;-70
2022/08/15 00:33:11;;;;;;;9.55;5.97;;;;;;;24.21;49.14;99916.88;5090363;28;20171;-71
2022/08/15 00:35:40;;;;;;;7.78;5.78;;;;;;;24.20;48.73;99916.06;5072546;28;20052;-69
2022/08/15 00:38:18;;;;;;;11.10;6.45;;;;;;;24.18;48.99;99915.41;5090038;28;20091;-70
2022/08/15 00:43:36;;;;;;;7.63;5.43;;;;;;;24.16;48.89;99922.88;5089880;28;20276;-68
2022/08/15 00:46:06;;;;;;;8.30;6.10;;;;;;;24.18;48.95;99930.81;5082137;28;20033;-70
2022/08/15 00:48:44;;;;;;;8.98;6.93;;;;;;;24.16;49.14;99925.59;5089835;28;20230;-70
2022/08/15 00:51:09;;;;;;;7.38;6.03;;;;;;;24.15;49.03;99925.81;5089719;28;20077;-69
2022/08/15 00:53:35;;;;;;;10.25;5.78;;;;;;;24.12;49.03;99923.50;5089679;28;20028;-70
2022/08/15 00:56:04;;;;;;;7.57;5.38;;;;;;;24.08;48.92;99921.19;5086231;28;20063;-69
2022/08/15 00:58:30;;;;;;;8.85;6.15;;;;;;;24.09;49.29;99924.75;5089458;28;20035;-70
2022/08/15 01:00:55;;;;;;;9.40;6.53;;;;;;;24.10;49.27;99928.28;5089530;28;20025;-69
2022/08/15 01:03:31;;;;;;;8.73;6.63;;;;;;;24.13;49.18;99930.56;5089520;28;20024;-71
2022/08/15 01:05:59;;;;;;;10.38;6.43;;;;;;;24.13;48.97;99931.41;5089562;28;20025;-70
2022/08/15 01:08:32;;;;;;;10.98;6.82;;;;;;;24.14;48.92;99932.25;5084241;28;20245;-70
2022/08/15 01:11:02;;;;;;;10.95;6.25;;;;;;;24.13;48.70;99927.88;5089603;28;20017;-70
2022/08/15 01:13:29;;;;;;;8.55;6.32;;;;;;;24.12;48.95;99945.13;5089233;28;20225;-70
2022/08/15 01:15:55;;;;;;;14.18;7.18;;;;;;;24.08;49.00;99931.19;5089347;28;20028;-70
2022/08/15 01:18:20;;;;;;;8.23;5.88;;;;;;;24.05;49.20;99945.91;5089187;28;20180;-71
2022/08/15 01:20:48;;;;;;;9.25;6.20;;;;;;;24.04;49.14;99944.25;5083898;28;20088;-70
2022/08/15 01:23:13;;;;;;;10.18;6.40;;;;;;;24.04;49.16;99946.13;5089080;28;20048;-69
2022/08/15 01:25:44;;;;;;;10.70;6.78;;;;;;;24.04;48.91;99943.41;5089090;28;20024;-70
2022/08/15 01:28:16;;;;;;;9.13;7.07;;;;;;;24.00;49.23;99939.44;5089066;28;20028;-70
2022/08/15 01:30:51;;;;;;;8.00;6.75;;;;;;;23.99;49.26;99935.91;5088963;28;20087;-70
2022/08/15 01:33:19;;;;;;;9.65;7.10;;;;;;;23.99;49.23;99940.47;5088841;28;20028;-68
2022/08/15 01:35:46;;;;;;;9.52;6.88;;;;;;;23.99;49.30;99940.47;5086713;28;20017;-70
2022/08/15 01:38:24;;;;;;;9.73;7.35;;;;;;;23.99;49.46;99946.72;5068762;28;20222;-71
2022/08/15 01:40:58;;;;;;;10.02;6.90;;;;;;;23.99;49.58;99941.31;5068796;28;20036;-70
2022/08/15 01:43:28;;;;;;;9.05;6.70;;;;;;;24.03;49.56;99942.59;5068733;28;20040;-69
2022/08/15 01:45:58;;;;;;;10.57;7.22;;;;;;;24.04;49.24;99946.94;5068691;28;20258;-70
2022/08/15 01:48:30;;;;;;;10.98;6.50;;;;;;;24.04;49.79;99944.25;5068620;28;20264;-70
2022/08/15 01:51:02;;;;;;;8.38;7.38;;;;;;;24.01;49.54;99946.50;5068468;28;20027;-69
2022/08/15 01:53:46;;;;;;;11.50;7.22;;;;;;;23.99;49.44;99951.28;5068524;28;20226;-70
2022/08/15 01:56:20;;;;;;;9.32;7.20;;;;;;;23.92;49.89;99951.22;5068522;28;20017;-70
2022/08/15 01:58:46;;;;;;;9.52;7.05;;;;;;;23.90;50.05;99950.56;5070544;28;20032;-70
2022/08/15 02:01:20;;;;;;;12.15;7.97;;;;;;;23.91;50.10;99953.09;5088465;28;20017;-70
2022/08/15 02:03:48;;;;;;;8.52;6.85;;;;;;;23.91;49.72;99953.09;5088548;28;20017;-70
2022/08/15 02:06:24;;;;;;;11.63;7.55;;;;;;;23.93;49.94;99953.72;5087098;28;20038;-70
2022/08/15 02:08:52;;;;;;;13.48;7.70;;;;;;;23.93;49.92;99952.88;5067871;28;20036;-69
2022/08/15 02:11:22;;;;;;;11.30;8.35;;;;;;;23.92;50.04;99953.91;5068165;28;20033;-71
2022/08/15 02:13:49;;;;;;;12.30;7.75;;;;;;;23.89;50.32;99951.63;5067866;28;20092;-71
2022/08/15 02:16:16;;;;;;;14.88;7.55;;;;;;;23.87;49.77;99959.09;5068184;28;20288;-70
2022/08/15 02:18:42;;;;;;;11.90;8.40;;;;;;;23.82;49.99;99966.94;5067991;28;20028;-70
2022/08/15 02:21:08;;;;;;;9.52;7.97;;;;;;;23.80;50.13;99969.00;5068023;28;20017;-71
2022/08/15 02:23:35;;;;;;;11.02;8.02;;;;;;;23.76;50.33;99965.88;5067997;28;20042;-70
2022/08/15 02:26:01;;;;;;;10.18;7.88;;;;;;;23.76;50.26;99960.47;5067992;28;20154;-70
2022/08/15 02:28:26;;;;;;;10.55;7.70;;;;;;;23.76;50.27;99966.69;5067859;28;20020;-70
2022/08/15 02:30:53;;;;;;;11.15;7.72;;;;;;;23.75;50.18;99965.03;5067849;28;20024;-69
2022/08/15 02:33:21;;;;;;;11.88;8.70;;;;;;;23.78;50.03;99964.63;5076069;28;20024;-70
2022/08/15 02:35:47;;;;;;;11.75;8.00;;;;;;;23.83;50.20;99976.72;5067781;28;20033;-72
2022/08/15 02:38:13;;;;;;;13.73;8.95;;;;;;;23.89;50.16;99959.75;5067656;28;20083;-70
2022/08/15 02:40:39;;;;;;;10.25;7.75;;;;;;;23.95;49.84;99967.03;5067738;28;20020;-71
2022/08/15 02:43:10;;;;;;;17.20;9.50;;;;;;;23.96;50.00;99973.28;5067728;28;20039;-70
2022/08/15 02:45:47;;;;;;;12.52;8.30;;;;;;;23.97;49.98;99965.00;5067707;28;20088;-71
2022/08/15 02:48:13;;;;;;;11.93;8.45;;;;;;;23.93;50.10;99975.34;5067286;28;20021;-69
2022/08/15 02:50:39;;;;;;;13.90;8.73;;;;;;;23.90;50.18;99974.88;5067527;28;20049;-70
2022/08/15 02:53:17;;;;;;;14.27;9.20;;;;;;;23.89;50.35;99982.19;5067584;28;20277;-71
2022/08/15 02:55:45;;;;;;;11.80;8.55;;;;;;;23.91;50.18;99973.88;5067489;28;20066;-69
2022/08/15 02:58:12;;;;;;;10.63;8.27;;;;;;;23.91;50.38;99973.88;5067507;28;20024;-71
2022/08/15 03:00:41;;;;;;;15.52;9.52;;;;;;;23.94;50.16;99976.19;5067516;28;20169;-71
2022/08/15 03:03:09;;;;;;;13.00;9.43;;;;;;;23.95;49.80;99977.03;5067432;28;20225;-69
2022/08/15 03:05:37;;;;;;;11.52;9.27;;;;;;;23.97;49.85;99978.53;5067345;28;20087;-70
2022/08/15 03:08:04;;;;;;;10.68;8.32;;;;;;;23.98;49.83;99977.50;5067224;28;20040;-70
2022/08/15 03:10:29;;;;;;;11.23;8.93;;;;;;;23.99;49.82;99981.00;5067222;28;20080;-69
2022/08/15 03:13:06;;;;;;;15.25;9.35;;;;;;;24.01;49.88;99979.81;5067290;28;20032;-70
2022/08/15 03:15:52;;;;;;;10.90;8.93;;;;;;;24.07;49.63;99983.56;5067234;28;20230;-70
2022/08/15 03:18:20;;;;;;;13.57;8.93;;;;;;;24.10;49.65;99980.47;5066730;28;20032;-68
2022/08/15 03:20:47;;;;;;;12.75;8.27;;;;;;;24.13;49.51;99988.16;5087894;28;20017;-70
2022/08/15 03:23:13;;;;;;;12.27;9.38;;;;;;;24.11;49.70;99984.00;5091583;28;20021;-70
2022/08/15 03:25:48;;;;;;;12.38;9.40;;;;;;;24.09;49.89;99989.63;5091361;28;20087;-69
2022/08/15 03:28:15;;;;;;;13.95;9.00;;;;;;;24.11;49.89;99992.97;5091332;28;20052;-70
2022/08/15 03:30:40;;;;;;;11.75;9.65;;;;;;;24.13;49.88;99980.06;5091287;28;20020;-70
2022/08/15 03:33:06;;;;;;;13.77;9.23;;;;;;;24.18;49.56;99988.41;5091292;28;20076;-71
2022/08/15 03:35:38;;;;;;;11.23;8.57;;;;;;;24.23;49.64;99987.81;5077757;28;20024;-70
2022/08/15 03:38:04;;;;;;;13.30;11.23;;;;;;;24.27;49.70;99986.38;5071202;28;20035;-70
2022/08/15 03:40:29;;;;;;;12.88;10.23;;;;;;;24.36;49.75;99987.88;5071033;28;20084;-72
2022/08/15 03:42:59;;;;;;;16.10;11.45;;;;;;;24.40;49.68;99980.22;5071053;28;20129;-71
2022/08/15 03:45:26;;;;;;;12.93;10.38;;;;;;;24.46;49.55;99983.97;5070878;28;20084;-71
2022/08/15 03:47:52;;;;;;;12.07;10.68;;;;;;;24.50;49.40;99987.94;5070992;28;20032;-71
2022/08/15 03:50:18;;;;;;;15.50;11.35;;;;;;;24.55;48.91;99993.59;5070808;28;20150;-71
2022/08/15 03:53:10;;;;;;;17.60;11.52;;;;;;;24.57;49.10;99987.97;5070797;28;20087;-72
2022/08/15 03:55:38;;;;;;;18.05;12.65;;;;;;;24.57;48.99;99986.09;5069685;28;20289;-72
2022/08/15 03:58:05;;;;;;;17.88;13.32;;;;;;;24.63;48.86;99985.28;5070791;28;20043;-72
2022/08/15 04:00:38;;;;;;;27.40;14.02;;;;;;;24.70;49.08;99989.94;5070668;28;20272;-70
2022/08/15 04:03:17;;;;;;;18.67;12.52;;;;;;;24.71;49.12;99997.81;5070667;28;20028;-70
2022/08/15 04:05:50;;;;;;;13.43;11.43;;;;;;;24.71;49.02;99991.59;5071676;28;20021;-70
2022/08/15 04:08:17;;;;;;;22.42;13.05;;;;;;;24.71;49.03;99999.72;5090387;28;20033;-72
2022/08/15 04:10:45;;;;;;;15.85;13.35;;;;;;;24.73;49.21;99994.94;5090462;28;20038;-72
2022/08/15 04:13:11;;;;;;;23.10;13.50;;;;;;;24.72;49.44;99995.97;5090419;28;20090;-71
2022/08/15 04:15:38;;;;;;;19.23;13.38;;;;;;;24.71;49.17;99999.72;5090510;28;20021;-70
2022/08/15 04:18:04;;;;;;;18.00;11.02;;;;;;;24.73;49.31;99997.63;5090484;28;20024;-71
2022/08/15 04:20:30;;;;;;;15.07;12.68;;;;;;;24.74;49.04;99994.72;5090306;28;20021;-72
2022/08/15 04:22:56;;;;;;;15.07;12.85;;;;;;;24.79;49.10;99999.53;5071468;28;20025;-70
2022/08/15 04:25:27;;;;;;;17.60;12.85;;;;;;;24.78;49.24;99985.16;5070218;28;20180;-71
2022/08/15 04:27:54;;;;;;;17.70;12.70;;;;;;;24.81;49.27;99989.31;5070236;28;20028;-71
2022/08/15 04:30:28;;;;;;;14.45;10.68;;;;;;;24.87;48.85;99993.94;5069682;28;20035;-71
2022/08/15 04:33:04;;;;;;;13.70;9.85;;;;;;;24.94;48.57;99986.66;5070156;28;20070;-70
2022/08/15 04:35:29;;;;;;;15.57;12.70;;;;;;;25.04;48.58;99980.84;5069894;28;20025;-70
2022/08/15 04:37:55;;;;;;;21.63;12.15;;;;;;;25.08;48.48;99982.13;5070019;28;20036;-72
2022/08/15 04:40:21;;;;;;;18.80;11.88;;;;;;;25.11;48.67;99986.28;5069663;28;20019;-72
2022/08/15 04:42:50;;;;;;;14.07;11.00;;;;;;;25.15;48.56;99990.25;5069702;28;20028;-70
2022/08/15 04:45:16;;;;;;;18.75;10.73;;;;;;;25.22;48.32;99988.38;5083596;28;20032;-69
2022/08/15 04:47:42;;;;;;;15.85;11.93;;;;;;;25.34;48.27;99985.06;5089894;28;20061;-70
2022/08/15 04:50:08;;;;;;;13.65;11.02;;;;;;;25.49;47.81;99993.00;5089498;28;20036;-70
2022/08/15 04:52:42;;;;;;;17.38;11.23;;;;;;;25.64;47.62;99990.09;5089799;28;20024;-71
2022/08/15 04:55:08;;;;;;;19.95;11.93;;;;;;;25.80;47.18;99997.81;5089755;28;20023;-71
2022/08/15 04:57:33;;;;;;;19.65;11.88;;;;;;;25.98;46.74;99991.72;5089700;28;20024;-71
2022/08/15 04:59:59;;;;;;;18.73;11.95;;;;;;;26.24;46.39;99994.63;5078423;28;20063;-72
2022/08/15 05:02:25;;;;;;;18.00;12.18;;;;;;;26.53;45.44;99990.53;5069579;28;20035;-71
2022/08/15 05:04:51;;;;;;;22.75;12.98;;;;;;;26.77;45.00;99991.69;5069475;28;20024;-70
2022/08/15 05:07:17;;;;;;;15.57;13.27;;;;;;;27.01;44.50;99991.19;5069260;28;20061;-70
2022/08/15 05:09:43;;;;;;;23.02;12.95;;;;;;;27.22;44.12;99985.38;5068426;28;20174;-72
2022/08/15 05:12:10;;;;;;;25.08;14.23;;;;;;;27.42;43.60;99987.94;5069313;28;20033;-70
2022/08/15 05:14:36;;;;;;;18.98;14.13;;;;;;;27.52;43.78;99987.47;5069243;28;20021;-72
2022/08/15 05:17:02;;;;;;;19.63;13.80;;;;;;;27.61;43.17;99982.59;5069279;28;20079;-71
2022/08/15 05:19:27;;;;;;;17.95;11.88;;;;;;;27.71;43.19;99988.38;5069158;28;20036;-70
2022/08/15 05:21:53;;;;;;;17.63;11.77;;;;;;;27.83;42.57;99993.88;5069204;28;20025;-71
2022/08/15 05:24:18;;;;;;;13.45;10.32;;;;;;;27.95;42.58;99985.84;5069097;28;20036;-72
2022/08/15 05:26:43;;;;;;;19.55;13.88;;;;;;;28.06;42.08;99994.31;5069032;28;20032;-71
2022/08/15 05:29:09;;;;;;;22.83;14.57;;;;;;;28.13;41.92;99987.75;5068786;28;20294;-71
2022/08/15 05:31:35;;;;;;;18.38;14.50;;;;;;;28.20;42.01;99990.41;5079610;28;20230;-70
2022/08/15 05:34:01;;;;;;;26.00;18.67;;;;;;;28.26;41.79;99989.50;5088852;28;20031;-70
2022/08/15 05:36:27;;;;;;;28.02;18.30;;;;;;;28.30;41.37;99985.28;5088769;28;20221;-71
2022/08/15 05:38:58;;;;;;;27.52;18.83;;;;;;;28.36;41.50;99988.97;5088739;28;20031;-71
2022/08/15 05:41:32;;;;;;;32.13;19.67;;;;;;;28.30;41.53;99982.56;5078787;28;20033;-72
2022/08/15 05:44:12;;;;;;;26.38;18.40;;;;;;;28.27;41.60;99980.28;5086179;28;20012;-68
2022/08/15 05:46:40;;;;;;;23.10;16.83;;;;;;;28.33;41.15;99978.56;5081804;28;20012;-72
2022/08/15 05:49:15;;;;;;;22.73;17.15;;;;;;;28.35;41.59;99981.03;5080051;28;20092;-70
2022/08/15 05:52:10;;;;;;;18.75;16.20;;;;;;;28.36;41.24;99977.25;5071649;28;20024;-72
2022/08/15 05:54:44;;;;;;;22.95;17.77;;;;;;;28.33;41.47;99979.38;5044728;28;20067;-71
2022/08/15 05:57:37;;;;;;;21.25;15.73;;;;;;;28.30;41.34;99984.44;5074373;28;20080;-71
2022/08/15 06:00:10;;;;;;;22.45;16.48;;;;;;;28.29;41.52;99982.78;5078706;28;20031;-71
2022/08/15 06:02:47;;;;;;;23.33;16.85;;;;;;;28.16;42.03;99978.34;5079044;28;21099;-72
2022/08/15 06:05:40;;;;;;;25.10;16.63;;;;;;;27.96;42.45;99984.78;5079184;28;20242;-70
2022/08/15 06:08:10;;;;;;;27.88;16.38;;;;;;;27.73;42.87;99969.13;5077800;28;20033;-72
2022/08/15 06:10:43;;;;;;;20.40;15.23;;;;;;;27.54;42.91;99971.78;5077533;28;20028;-70
2022/08/15 06:13:22;;;;;;;21.48;17.08;;;;;;;27.41;43.12;99970.00;5088055;28;20025;-73
2022/08/15 06:16:06;;;;;;;30.23;16.23;;;;;;;27.32;43.64;99971.31;5088055;28;20035;-73
2022/08/15 06:18:35;;;;;;;22.67;15.52;;;;;;;27.23;43.43;99973.47;5083520;28;20039;-73
2022/08/15 06:21:26;;;;;;;25.60;16.13;;;;;;;27.18;43.75;99977.88;5088068;28;20077;-71
2022/08/15 06:24:10;;;;;;;23.08;15.00;;;;;;;27.10;43.36;99979.84;5087921;28;20033;-73
2022/08/15 06:26:54;;;;;;;21.20;15.65;;;;;;;27.04;43.39;99969.84;5087882;28;20028;-72
2022/08/15 06:29:25;;;;;;;21.92;15.25;;;;;;;27.03;43.27;99981.75;5087828;28;20196;-73
2022/08/15 06:31:58;;;;;;;21.17;15.82;;;;;;;27.00;42.98;99973.22;5087760;28;20287;-72
2022/08/15 06:34:42;;;;;;;19.88;15.20;;;;;;;26.98;42.80;99978.88;5067849;28;20037;-72
2022/08/15 06:37:19;;;;;;;27.25;15.98;;;;;;;26.92;42.73;99979.75;5067784;28;20249;-73
2022/08/15 06:40:00;;;;;;;20.60;14.27;;;;;;;26.89;42.70;99981.00;5067690;28;20031;-72
2022/08/15 06:42:38;;;;;;;26.02;14.77;;;;;;;26.86;43.07;99984.16;5067669;28;20079;-72
2022/08/15 06:45:10;;;;;;;20.10;14.05;;;;;;;26.88;42.98;99992.06;5067570;28;20055;-73
2022/08/15 06:47:37;;;;;;;19.60;13.73;;;;;;;26.88;43.04;99989.34;5067707;28;20021;-73
2022/08/15 06:50:11;;;;;;;24.20;14.25;;;;;;;26.88;43.00;99981.22;5067513;28;20031;-73
2022/08/15 06:52:38;;;;;;;20.55;12.98;;;;;;;26.87;42.96;99982.25;5067401;28;20024;-73
2022/08/15 06:55:04;;;;;;;19.52;11.63;;;;;;;26.87;42.31;99990.41;5067483;28;20047;-73
2022/08/15 06:57:50;;;;;;;14.02;9.48;;;;;;;26.87;41.73;99998.56;5067587;28;20024;-72
2022/08/15 07:00:19;;;;;;;13.50;8.25;;;;;;;26.86;41.43;99991.47;5067640;28;20013;-74
2022/08/15 07:03:30;;;;;;;10.50;7.43;;;;;;;26.85;41.00;99996.06;5067385;28;20269;-73
2022/08/15 07:05:56;;;;;;;;;;;;;;;26.74;40.96;99997.53;5088182;28;20038;-73
2022/08/15 07:08:50;;;;;;;10.82;6.13;;;;;;;26.75;40.55;99991.06;5087188;28;20006;-72
2022/08/15 07:11:18;;;;;;;12.77;5.53;;;;;;;26.73;40.24;99992.34;5087342;28;20021;-73
2022/08/15 07:14:08;;;;;;;15.40;5.35;;;;;;;26.74;40.13;99994.00;5082227;28;20052;-73
2022/08/15 07:17:03;;;;;;;7.13;5.25;;;;;;;26.73;40.33;99987.72;5087378;28;20083;-73
2022/08/15 07:19:29;;;;;;;13.27;5.95;;;;;;;26.74;40.26;99991.31;5081415;28;20028;-72
2022/08/15 07:21:55;;;;;;;9.77;5.75;;;;;;;26.75;40.02;100001.94;5067148;28;20068;-72
2022/08/15 07:24:20;;;;;;;11.85;6.15;;;;;;;26.73;40.15;99998.59;5067120;28;20021;-73
2022/08/15 07:26:48;;;;;;;10.25;5.82;;;;;;;26.72;40.03;99996.94;5067078;28;20123;-73
2022/08/15 07:29:36;;;;;;;9.38;5.60;;;;;;;26.71;40.21;100000.69;5066716;28;20226;-72
2022/08/15 07:32:29;;;;;;;18.10;6.35;;;;;;;26.73;40.37;99997.78;5037294;28;20041;-72
2022/08/15 07:34:59;;;;;;;11.30;5.00;;;;;;;26.73;40.31;100004.03;5066594;28;20027;-72
2022/08/15 07:37:32;;;;;;;6.82;4.20;;;;;;;26.74;39.98;99999.44;5069363;28;20021;-73
2022/08/15 07:40:24;;;;;;;10.02;4.22;;;;;;;26.75;39.64;100001.13;5086592;28;20077;-72
2022/08/15 07:42:49;;;;;;;7.57;4.30;;;;;;;26.77;39.33;100001.69;5086812;28;20017;-73
2022/08/15 07:45:26;;;;;;;10.25;3.97;;;;;;;26.77;39.32;100002.53;5086763;28;20021;-73
2022/08/15 07:47:59;;;;;;;5.22;3.42;;;;;;;26.78;38.85;99992.50;5087045;28;20032;-72
2022/08/15 07:50:31;;;;;;;4.85;2.78;;;;;;;26.77;39.17;99990.84;5086834;28;20024;-72
2022/08/15 07:53:04;;;;;;;4.13;3.05;;;;;;;26.77;39.17;99991.69;5086987;28;20024;-73
2022/08/15 07:55:31;;;;;;;8.10;3.15;;;;;;;26.77;39.07;99991.69;5086937;28;20028;-73
2022/08/15 07:58:03;;;;;;;6.20;2.50;;;;;;;26.74;38.95;99994.84;5086965;28;20024;-73
2022/08/15 08:00:34;;;;;;;10.82;2.83;;;;;;;26.72;38.96;99990.69;5086854;28;20043;-75
2022/08/15 08:03:27;;;;;;;6.47;3.72;;;;;;;26.72;38.66;99988.78;5086985;28;20028;-73
2022/08/15 08:06:09;;;;;;;8.02;5.07;;;;;;;26.70;38.78;99996.31;5088972;28;20229;-74
2022/08/15 08:08:55;;;;;;;15.50;9.70;;;;;;;26.69;38.75;99994.63;5090279;28;20264;-73
2022/08/15 08:11:29;;;;;;;16.45;10.18;;;;;;;26.71;38.91;99997.97;5083106;28;20040;-73
2022/08/15 08:14:29;;;;;;;13.15;7.55;;;;;;;26.74;38.63;99996.72;5090282;28;20032;-73
2022/08/15 08:17:07;;;;;;;10.33;7.43;;;;;;;26.73;38.58;99997.78;5090471;28;20173;-73
2022/08/15 08:19:58;;;;;;;10.98;8.65;;;;;;;26.74;38.54;99997.53;5090379;28;20028;-73
2022/08/15 08:22:47;;;;;;;12.23;7.63;;;;;;;26.74;38.61;99994.00;5090369;28;20039;-73
2022/08/15 08:25:32;;;;;;;7.38;5.05;;;;;;;26.76;38.58;99995.44;5090251;28;20153;-75
2022/08/15 08:28:13;;;;;;;9.73;6.88;;;;;;;26.77;38.41;99997.13;5090292;28;20028;-74
2022/08/15 08:30:44;;;;;;;9.43;5.43;;;;;;;26.80;38.63;99998.59;5090082;28;20062;-74
2022/08/15 08:33:54;;;;;;;8.50;5.07;;;;;;;26.82;38.45;99991.06;5084173;28;20024;-74
2022/08/15 08:36:21;;;;;;;10.83;6.57;;;;;;;26.80;38.99;99994.00;5066919;28;20033;-74
2022/08/15 08:38:57;;;;;;;9.57;5.20;;;;;;;26.83;38.99;99990.00;5069994;28;20392;-74
2022/08/15 08:41:35;;;;;;;10.27;4.85;;;;;;;26.84;38.68;99988.97;5069932;28;20044;-74
2022/08/15 08:44:19;;;;;;;10.35;4.65;;;;;;;26.85;38.85;99981.66;5069836;28;20049;-74
2022/08/15 08:46:48;;;;;;;7.43;4.30;;;;;;;26.86;38.65;99980.59;5069876;28;20134;-74
2022/08/15 08:49:36;;;;;;;4.82;4.10;;;;;;;26.86;38.56;99988.75;5069811;28;20092;-71
2022/08/15 08:52:40;;;;;;;6.82;4.00;;;;;;;26.84;38.85;99993.59;5069685;28;20013;-74
2022/08/15 08:55:18;;;;;;;5.38;3.55;;;;;;;26.85;38.42;99992.50;5009124;28;20315;-73
2022/08/15 08:57:53;;;;;;;5.85;3.60;;;;;;;26.86;38.26;99988.75;5027005;28;20033;-74
2022/08/15 09:00:30;;;;;;;8.05;3.75;;;;;;;26.85;38.12;99993.34;5053736;28;20024;-74
2022/08/15 09:03:09;;;;;;;9.57;3.90;;;;;;;26.83;38.06;99987.31;5069583;28;20095;-74
2022/08/15 09:05:48;;;;;;;4.18;2.75;;;;;;;26.85;37.40;99987.06;5069466;28;20036;-73
2022/08/15 09:08:30;;;;;;;5.20;2.47;;;;;;;26.83;37.24;99989.19;5086653;28;20064;-73
2022/08/15 09:11:19;;;;;;;5.63;2.65;;;;;;;26.83;37.12;99995.44;5089392;28;20044;-74
2022/08/15 09:13:46;;;;;;;6.90;2.60;;;;;;;26.85;37.50;99993.34;5088909;28;20097;-74
2022/08/15 09:16:32;;;;;;;4.70;2.83;;;;;;;26.85;37.92;99982.50;5089329;28;20081;-73
2022/08/15 09:19:10;;;;;;;6.70;2.50;;;;;;;26.86;37.31;99981.44;5089131;28;20024;-72
2022/08/15 09:21:35;;;;;;;8.38;2.20;;;;;;;26.85;36.83;99979.78;5089152;28;20017;-72
2022/08/15 09:24:03;;;;;;;8.23;2.65;;;;;;;26.86;37.51;99977.88;5082683;28;20027;-75
2022/08/15 09:26:53;;;;;;;6.95;2.70;;;;;;;26.88;37.85;99981.22;5077246;28;20083;-73
2022/08/15 09:29:25;;;;;;;4.20;2.28;;;;;;;26.87;38.30;99983.13;5077594;28;20033;-74
2022/08/15 09:31:53;;;;;;;5.22;2.22;;;;;;;26.88;37.85;99982.06;5080834;28;20138;-74
2022/08/15 09:34:46;;;;;;;8.35;2.63;;;;;;;26.90;38.33;99976.41;5075298;28;20024;-73
2022/08/15 09:37:41;;;;;;;4.93;2.42;;;;;;;26.91;37.57;99972.63;5088690;28;20024;-72
2022/08/15 09:40:41;;;;;;;3.17;2.35;;;;;;;26.91;37.21;99961.78;5079906;28;20055;-73
2022/08/15 09:43:16;;;;;;;4.75;2.08;;;;;;;26.93;37.04;99968.66;5083765;28;20046;-73
2022/08/15 09:46:10;;;;;;;6.60;2.20;;;;;;;26.94;37.58;99964.88;5085306;28;20039;-72
2022/08/15 09:48:45;;;;;;;3.92;2.13;;;;;;;26.96;37.83;99975.53;5068526;28;20025;-73
2022/08/15 09:51:48;;;;;;;6.05;2.45;;;;;;;27.00;37.51;99973.22;5068322;28;20028;-75
2022/08/15 09:54:23;;;;;;;4.45;2.85;;;;;;;27.00;37.20;99965.88;5086417;28;20123;-74
2022/08/15 09:57:18;;;;;;;7.15;2.70;;;;;;;27.03;37.03;99962.75;5088391;28;20028;-74
2022/08/15 09:59:51;;;;;;;6.18;3.47;;;;;;;27.07;37.25;99960.41;5082515;28;20037;-75
2022/08/15 10:02:17;;;;;;;8.52;2.80;;;;;;;27.10;37.04;99960.81;5068623;28;20013;-74
2022/08/15 10:04:48;;;;;;;5.30;3.30;;;;;;;27.13;37.00;99956.00;5078062;28;20222;-72
2022/08/15 10:07:14;;;;;;;12.73;4.22;;;;;;;27.16;36.80;99959.13;5077514;28;20036;-81
2022/08/15 10:10:04;;;;;;;20.70;5.75;;;;;;;27.18;37.02;99957.00;5072048;28;20071;-73
2022/08/15 10:12:32;;;;;;;10.40;5.18;;;;;;;27.18;35.45;99965.16;5083712;28;20237;-70
2022/08/15 10:15:03;;;;;;;9.82;5.15;;;;;;;27.19;34.84;99963.25;5072489;28;20030;-72
2022/08/15 10:17:37;;;;;;;9.40;4.57;;;;;;;27.22;34.53;99965.53;5079322;28;20032;-73
2022/08/15 10:20:15;;;;;;;9.93;4.78;;;;;;;27.18;34.15;99957.00;5073578;28;20035;-74
2022/08/15 10:22:48;;;;;;;10.60;6.40;;;;;;;27.18;34.43;99961.59;5067962;28;20021;-72
2022/08/15 10:25:22;;;;;;;9.98;6.35;;;;;;;27.17;34.44;99965.34;5069683;28;20074;-72
2022/08/15 10:28:09;;;;;;;15.43;6.32;;;;;;;27.19;34.57;99963.25;5087409;28;20221;-71
2022/08/15 10:30:52;;;;;;;10.30;6.63;;;;;;;27.20;34.66;99963.06;5085964;28;20044;-74
2022/08/15 10:33:29;;;;;;;14.52;6.28;;;;;;;27.21;35.14;99966.59;5076816;28;20237;-72
2022/08/15 10:36:15;;;;;;;10.48;6.10;;;;;;;27.22;35.49;99960.94;5075811;28;20031;-72
2022/08/15 10:38:52;;;;;;;8.18;5.45;;;;;;;27.23;35.79;99959.06;5068326;28;20048;-71
2022/08/15 10:41:37;;;;;;;10.20;7.35;;;;;;;27.25;35.45;99959.69;5086359;28;20107;-73
2022/08/15 10:44:05;;;;;;;15.40;7.18;;;;;;;27.27;35.46;99960.28;5069969;28;20024;-71
2022/08/15 10:46:35;;;;;;;12.27;7.10;;;;;;;27.30;35.11;99962.53;5077388;28;20029;-73
2022/08/15 10:49:08;;;;;;;15.07;9.18;;;;;;;27.33;34.77;99953.13;5068445;28;20020;-74
2022/08/15 10:51:37;;;;;;;12.23;8.77;;;;;;;27.34;34.70;99954.81;5072449;28;20150;-74
2022/08/15 10:54:35;;;;;;;9.13;7.28;;;;;;;27.32;34.76;99955.00;5084948;28;20092;-69
2022/08/15 10:57:04;;;;;;;16.25;9.38;;;;;;;27.33;34.70;99961.28;5045383;28;20071;-72
2022/08/15 10:59:54;;;;;;;13.95;9.60;;;;;;;27.33;34.56;99947.69;5071499;28;20091;-73
2022/08/15 11:02:31;;;;;;;14.83;9.43;;;;;;;27.28;35.10;99951.06;5084808;28;20233;-72
2022/08/15 11:05:10;;;;;;;19.85;13.80;;;;;;;27.27;34.87;99954.84;5087359;28;20267;-72
2022/08/15 11:07:40;;;;;;;20.58;14.63;;;;;;;27.25;35.17;99946.91;5067177;28;20040;-72
2022/08/15 11:10:12;;;;;;;26.00;17.80;;;;;;;27.26;35.15;99955.91;5067232;28;20032;-72
2022/08/15 11:12:42;;;;;;;28.52;19.08;;;;;;;27.26;35.65;99954.00;5067353;28;20082;-72
2022/08/15 11:15:30;;;;;;;29.42;20.60;;;;;;;27.27;35.54;99944.81;5067306;28;20062;-72
2022/08/15 11:18:03;;;;;;;27.73;19.45;;;;;;;27.25;35.73;99954.25;5067371;28;20036;-72
2022/08/15 11:20:38;;;;;;;26.83;22.50;;;;;;;27.26;35.66;99959.44;5067199;28;20024;-72
2022/08/15 11:23:04;;;;;;;29.02;21.77;;;;;;;27.24;35.79;99953.41;5067183;28;20177;-73
2022/08/15 11:25:32;;;;;;;33.45;23.73;;;;;;;27.25;35.66;99957.78;5067191;28;20025;-73
2022/08/15 11:28:29;;;;;;;29.60;22.92;;;;;;;27.25;35.87;99948.81;5067280;28;20040;-73
2022/08/15 11:31:04;;;;;;;26.92;21.38;;;;;;;27.24;35.79;99949.84;5067180;28;20029;-73
2022/08/15 11:33:43;;;;;;;24.50;20.10;;;;;;;27.24;36.07;99942.53;5067199;28;20028;-73
2022/08/15 11:36:22;;;;;;;26.80;20.30;;;;;;;27.25;35.71;99951.53;5067167;28;20020;-72
2022/08/15 11:38:53;;;;;;;22.58;19.70;;;;;;;27.23;36.07;99942.75;5067081;28;20040;-73
2022/08/15 11:41:29;;;;;;;27.40;22.35;;;;;;;27.23;35.83;99943.56;5070024;28;20214;-73
2022/08/15 11:43:58;;;;;;;26.38;22.65;;;;;;;27.23;36.24;99950.91;5071046;28;20102;-72
2022/08/15 11:46:26;;;;;;;32.75;24.20;;;;;;;27.21;36.08;99947.56;5071023;28;20091;-73
2022/08/15 11:49:24;;;;;;;27.35;22.75;;;;;;;27.21;36.21;99953.81;5070784;28;20082;-73
2022/08/15 11:51:50;;;;;;;26.42;21.42;;;;;;;27.20;36.50;99952.19;5070640;28;20029;-72
2022/08/15 11:54:15;;;;;;;26.45;22.60;;;;;;;27.20;36.51;99943.19;5090061;28;20035;-73
2022/08/15 11:56:51;;;;;;;32.17;23.30;;;;;;;27.20;36.63;99937.75;5090745;28;20028;-73